Time;durP1;ratioP1;P1;durP2;ratioP2;P2;SDS_P1;SDS_P2;PMS_P1;PMS_P2;Temp;Humidity;BMP_temperature;BMP_pressure;BME280_temperature;BME280_humidity;BME280_pressure;Samples;Min_cycle;Max_cycle;Signal;HPM_P1;HPM_P2
2022/06/22 00:02:12;;;;;;;12.77;6.47;;;;;;;;;;6276458;22;20007;-69
2022/06/22 00:04:38;;;;;;;17.45;6.75;;;;;;;;;;6276417;22;19992;-69
2022/06/22 00:07:04;;;;;;;13.23;6.88;;;;;;;;;;6276669;22;19999;-69
2022/06/22 00:09:31;;;;;;;12.95;6.82;;;;;;;;;;6276209;22;20031;-69
2022/06/22 00:11:57;;;;;;;14.63;6.47;;;;;;;;;;6276697;22;20049;-69
2022/06/22 00:14:25;;;;;;;16.23;7.15;;;;;;;;;;6277873;22;20012;-69
2022/06/22 00:16:52;;;;;;;14.45;6.32;;;;;;;;;;6278147;22;20004;-69
2022/06/22 00:19:23;;;;;;;12.45;6.07;;;;;;;;;;6277884;22;20424;-69
2022/06/22 00:21:48;;;;;;;20.75;7.60;;;;;;;;;;6278266;22;20003;-69
2022/06/22 00:24:22;;;;;;;12.20;6.53;;;;;;;;;;6278280;22;20415;-69
2022/06/22 00:26:48;;;;;;;;;;;;;;;;;;6278647;22;20042;-69
2022/06/22 00:29:13;;;;;;;13.10;5.25;;;;;;;;;;6278177;22;19903;-69
2022/06/22 00:31:38;;;;;;;12.43;6.05;;;;;;;;;;6277966;22;20256;-69
2022/06/22 00:34:12;;;;;;;17.33;6.70;;;;;;;;;;6277843;22;20074;-69
2022/06/22 00:36:56;;;;;;;16.10;6.47;;;;;;;;;;6278112;22;20030;-69
2022/06/22 00:39:23;;;;;;;11.82;6.50;;;;;;;;;;6278028;22;20106;-69
2022/06/22 00:41:55;;;;;;;15.65;8.32;;;;;;;;;;6277727;22;20336;-69
2022/06/22 00:44:21;;;;;;;27.98;7.35;;;;;;;;;;6277992;22;20031;-69
2022/06/22 00:47:05;;;;;;;10.93;6.30;;;;;;;;;;6278067;22;20050;-69
2022/06/22 00:49:30;;;;;;;;;;;;;;;;;;6277876;22;20420;-69
2022/06/22 00:51:58;;;;;;;9.45;5.03;;;;;;;;;;6277409;22;20338;-69
2022/06/22 00:54:25;;;;;;;14.68;6.43;;;;;;;;;;6277653;22;20681;-69
2022/06/22 00:56:53;;;;;;;13.60;6.07;;;;;;;;;;6277784;22;20086;-69
2022/06/22 00:59:18;;;;;;;16.42;6.88;;;;;;;;;;6277835;22;20308;-69
2022/06/22 01:01:47;;;;;;;18.55;6.60;;;;;;;;;;6277749;22;20004;-69
2022/06/22 01:04:21;;;;;;;12.73;5.70;;;;;;;;;;6277973;22;19999;-69
2022/06/22 01:06:50;;;;;;;17.95;6.45;;;;;;;;;;6277867;22;19987;-69
2022/06/22 01:09:18;;;;;;;17.92;6.05;;;;;;;;;;6277393;22;20010;-69
2022/06/22 01:14:49;;;;;;;11.50;6.07;;;;;;;;;;6277189;22;20019;-69
2022/06/22 01:17:20;;;;;;;13.38;5.80;;;;;;;;;;6277378;22;20468;-69
2022/06/22 01:19:55;;;;;;;18.50;6.78;;;;;;;;;;6277566;22;20000;-69
2022/06/22 01:22:33;;;;;;;21.90;7.60;;;;;;;;;;6277328;22;20466;-69
2022/06/22 01:25:01;;;;;;;16.38;6.75;;;;;;;;;;6277557;22;20004;-69
2022/06/22 01:27:30;;;;;;;13.63;6.65;;;;;;;;;;6277739;22;20236;-68
2022/06/22 01:29:57;;;;;;;17.52;6.60;;;;;;;;;;6277345;22;19988;-69
2022/06/22 01:32:25;;;;;;;15.15;6.65;;;;;;;;;;6277551;22;20015;-69
2022/06/22 01:34:54;;;;;;;16.10;6.97;;;;;;;;;;6277634;22;20003;-69
2022/06/22 01:37:30;;;;;;;16.80;6.38;;;;;;;;;;6277169;22;20328;-69
2022/06/22 01:40:05;;;;;;;15.50;7.63;;;;;;;;;;6277100;22;20011;-69
2022/06/22 01:42:32;;;;;;;18.63;7.38;;;;;;;;;;6277508;22;20029;-69
2022/06/22 01:45:00;;;;;;;17.83;7.00;;;;;;;;;;6277450;22;19995;-69
2022/06/22 01:47:39;;;;;;;15.15;7.20;;;;;;;;;;6277406;22;20007;-69
2022/06/22 01:50:10;;;;;;;14.95;7.05;;;;;;;;;;6277008;22;20451;-69
2022/06/22 01:52:36;;;;;;;16.00;7.53;;;;;;;;;;6277160;22;20007;-69
2022/06/22 01:55:03;;;;;;;13.38;7.45;;;;;;;;;;6277369;22;19996;-69
2022/06/22 01:57:34;;;;;;;14.52;7.30;;;;;;;;;;6277419;22;20000;-69
2022/06/22 02:00:00;;;;;;;17.77;7.25;;;;;;;;;;6277160;22;20004;-69
2022/06/22 02:02:28;;;;;;;16.00;6.97;;;;;;;;;;6277355;22;20002;-69
2022/06/22 02:04:56;;;;;;;16.15;7.20;;;;;;;;;;6277147;22;20035;-69
2022/06/22 02:07:46;;;;;;;20.40;8.02;;;;;;;;;;6277124;22;20007;-69
2022/06/22 02:10:18;;;;;;;18.58;6.38;;;;;;;;;;6277271;22;19996;-69
2022/06/22 02:12:53;;;;;;;14.18;6.40;;;;;;;;;;6276935;22;20026;-69
2022/06/22 02:15:21;;;;;;;17.67;6.63;;;;;;;;;;6276755;22;20331;-69
2022/06/22 02:17:46;;;;;;;13.00;6.72;;;;;;;;;;6249963;22;20426;-69
2022/06/22 02:20:21;;;;;;;13.10;6.70;;;;;;;;;;6276963;22;20025;-69
2022/06/22 02:22:47;;;;;;;15.32;6.57;;;;;;;;;;6277092;22;20030;-69
2022/06/22 02:25:12;;;;;;;20.95;6.97;;;;;;;;;;6277284;22;20495;-69
2022/06/22 02:27:38;;;;;;;14.25;6.85;;;;;;;;;;6276881;22;20053;-69
2022/06/22 02:30:03;;;;;;;13.52;6.55;;;;;;;;;;6277113;22;19996;-69
2022/06/22 02:32:33;;;;;;;18.02;6.95;;;;;;;;;;6276895;22;20007;-70
2022/06/22 02:34:59;;;;;;;17.13;6.63;;;;;;;;;;6276512;22;20479;-69
2022/06/22 02:37:28;;;;;;;15.27;6.60;;;;;;;;;;6276997;22;20046;-69
2022/06/22 02:39:56;;;;;;;18.50;6.88;;;;;;;;;;6277009;22;20007;-69
2022/06/22 02:45:09;;;;;;;16.80;6.40;;;;;;;;;;6276699;22;20092;-69
2022/06/22 02:47:48;;;;;;;13.95;6.07;;;;;;;;;;6276969;22;20377;-69
2022/06/22 02:50:17;;;;;;;15.10;6.07;;;;;;;;;;6276905;22;20305;-69
2022/06/22 02:52:58;;;;;;;22.00;6.65;;;;;;;;;;6276156;22;20485;-69
2022/06/22 02:55:25;;;;;;;17.27;6.60;;;;;;;;;;6276435;22;20351;-69
2022/06/22 02:57:50;;;;;;;13.98;6.10;;;;;;;;;;6276736;22;20032;-69
2022/06/22 03:00:17;;;;;;;16.88;6.80;;;;;;;;;;6276824;22;20408;-69
2022/06/22 03:02:42;;;;;;;17.60;7.25;;;;;;;;;;6276625;22;20011;-69
2022/06/22 03:05:09;;;;;;;16.35;5.57;;;;;;;;;;6276873;22;20004;-69
2022/06/22 03:07:36;;;;;;;14.30;6.15;;;;;;;;;;6276514;22;19995;-69
2022/06/22 03:10:02;;;;;;;20.98;6.70;;;;;;;;;;6276854;22;20061;-69
2022/06/22 03:12:28;;;;;;;18.95;6.43;;;;;;;;;;6276673;22;20339;-69
2022/06/22 03:14:53;;;;;;;15.70;6.13;;;;;;;;;;6276217;22;19996;-68
2022/06/22 03:17:22;;;;;;;17.10;6.53;;;;;;;;;;6276742;22;20000;-69
2022/06/22 03:19:54;;;;;;;16.63;6.60;;;;;;;;;;6276401;22;20008;-69
2022/06/22 03:22:24;;;;;;;12.32;6.13;;;;;;;;;;6276659;22;20000;-69
2022/06/22 03:24:49;;;;;;;13.30;6.75;;;;;;;;;;6276625;22;20003;-69
2022/06/22 03:27:17;;;;;;;17.48;7.05;;;;;;;;;;6276931;22;20483;-69
2022/06/22 03:29:58;;;;;;;17.52;6.32;;;;;;;;;;6276379;22;20003;-69
2022/06/22 03:32:27;;;;;;;14.80;6.20;;;;;;;;;;6249229;22;20350;-69
2022/06/22 03:35:00;;;;;;;27.83;6.25;;;;;;;;;;6276579;22;19996;-69
2022/06/22 03:37:28;;;;;;;15.93;6.03;;;;;;;;;;6276640;22;20000;-69
2022/06/22 03:39:56;;;;;;;15.60;6.10;;;;;;;;;;6276651;22;20011;-69
2022/06/22 03:42:44;;;;;;;15.65;5.88;;;;;;;;;;6276780;22;20000;-69
2022/06/22 03:45:21;;;;;;;13.32;5.40;;;;;;;;;;6259644;22;20046;-69
2022/06/22 03:47:54;;;;;;;15.27;5.70;;;;;;;;;;6277279;22;20431;-69
2022/06/22 03:50:26;;;;;;;15.10;5.32;;;;;;;;;;6278078;22;20446;-69
2022/06/22 03:53:01;;;;;;;13.60;5.43;;;;;;;;;;6278418;22;20012;-71
2022/06/22 03:55:39;;;;;;;15.73;5.80;;;;;;;;;;6278595;22;20024;-70
2022/06/22 03:58:07;;;;;;;19.40;5.50;;;;;;;;;;6278235;22;20031;-70
2022/06/22 04:00:34;;;;;;;16.95;5.32;;;;;;;;;;6278359;22;20014;-70
2022/06/22 04:02:59;;;;;;;15.32;5.10;;;;;;;;;;6278508;22;20003;-71
2022/06/22 04:05:27;;;;;;;11.98;5.38;;;;;;;;;;6278451;22;20041;-71
2022/06/22 04:07:53;;;;;;;12.30;5.70;;;;;;;;;;6278262;22;20004;-70
2022/06/22 04:10:25;;;;;;;15.05;5.18;;;;;;;;;;6278568;22;20007;-70
2022/06/22 04:12:51;;;;;;;14.68;4.93;;;;;;;;;;6278188;22;20066;-70
2022/06/22 04:15:23;;;;;;;14.68;5.03;;;;;;;;;;6278698;22;20031;-70
2022/06/22 04:17:50;;;;;;;15.18;5.30;;;;;;;;;;6277978;22;20015;-71
2022/06/22 04:20:50;;;;;;;14.55;5.03;;;;;;;;;;6278135;22;20427;-70
2022/06/22 04:23:35;;;;;;;8.50;4.25;;;;;;;;;;6278470;22;20119;-71
2022/06/22 04:26:07;;;;;;;12.73;4.43;;;;;;;;;;6256076;22;20007;-71
2022/06/22 04:28:34;;;;;;;12.35;4.35;;;;;;;;;;6278111;22;20004;-71
2022/06/22 04:31:00;;;;;;;17.65;4.72;;;;;;;;;;6277672;22;20350;-71
2022/06/22 04:33:28;;;;;;;11.98;5.15;;;;;;;;;;6278396;22;20002;-71
2022/06/22 04:35:56;;;;;;;10.60;3.97;;;;;;;;;;6278127;22;20007;-71
2022/06/22 04:38:29;;;;;;;9.88;4.63;;;;;;;;;;6278026;22;20015;-71
2022/06/22 04:40:59;;;;;;;10.50;4.10;;;;;;;;;;6277579;22;20332;-71
2022/06/22 04:43:25;;;;;;;9.27;4.15;;;;;;;;;;6278006;22;20000;-71
2022/06/22 04:45:51;;;;;;;13.25;4.68;;;;;;;;;;6278119;22;20075;-70
2022/06/22 04:48:26;;;;;;;12.63;3.50;;;;;;;;;;6278077;22;20087;-71
2022/06/22 04:50:56;;;;;;;6.53;2.40;;;;;;;;;;6277712;22;20463;-71
2022/06/22 04:53:22;;;;;;;9.45;2.60;;;;;;;;;;6278214;22;20082;-70
2022/06/22 04:55:49;;;;;;;5.10;2.10;;;;;;;;;;6277749;22;20015;-71
2022/06/22 04:58:37;;;;;;;20.08;2.97;;;;;;;;;;6277880;22;20022;-70
2022/06/22 05:01:04;;;;;;;21.23;3.28;;;;;;;;;;6260983;22;20011;-71
2022/06/22 05:03:29;;;;;;;7.40;2.20;;;;;;;;;;6277467;22;20086;-70
2022/06/22 05:05:57;;;;;;;4.90;2.03;;;;;;;;;;6277823;22;20015;-70
2022/06/22 05:08:24;;;;;;;5.93;1.80;;;;;;;;;;6277828;22;20082;-70
2022/06/22 05:10:53;;;;;;;10.20;2.00;;;;;;;;;;6277708;22;20011;-70
2022/06/22 05:13:35;;;;;;;5.18;2.03;;;;;;;;;;6277721;22;20091;-70
2022/06/22 05:16:01;;;;;;;7.65;2.08;;;;;;;;;;6277495;22;20004;-71
2022/06/22 05:18:30;;;;;;;6.05;2.20;;;;;;;;;;6277942;22;20086;-71
2022/06/22 05:20:59;;;;;;;4.10;1.80;;;;;;;;;;6277500;22;19992;-71
2022/06/22 05:23:25;;;;;;;4.78;1.80;;;;;;;;;;6277602;22;20004;-71
2022/06/22 05:25:52;;;;;;;5.88;1.70;;;;;;;;;;6277627;22;20004;-71
2022/06/22 05:28:20;;;;;;;4.55;1.70;;;;;;;;;;6277775;22;20002;-71
2022/06/22 05:30:47;;;;;;;4.95;1.80;;;;;;;;;;6277291;22;20383;-71
2022/06/22 05:33:15;;;;;;;4.32;1.85;;;;;;;;;;6277752;22;20015;-71
2022/06/22 05:35:52;;;;;;;3.95;1.73;;;;;;;;;;6277525;22;19995;-72
2022/06/22 05:38:18;;;;;;;6.53;1.67;;;;;;;;;;6277528;22;20098;-71
2022/06/22 05:40:44;;;;;;;7.40;1.75;;;;;;;;;;6277402;22;20036;-71
2022/06/22 05:43:10;;;;;;;3.13;1.70;;;;;;;;;;6277255;22;20351;-71
2022/06/22 05:45:46;;;;;;;3.03;1.42;;;;;;;;;;6250125;22;20004;-71
2022/06/22 05:48:14;;;;;;;2.65;1.50;;;;;;;;;;6277637;22;20049;-71
2022/06/22 05:50:51;;;;;;;3.83;1.60;;;;;;;;;;6277177;22;20070;-72
2022/06/22 05:53:25;;;;;;;3.22;1.42;;;;;;;;;;6277614;22;20008;-72
2022/06/22 05:55:53;;;;;;;6.93;1.75;;;;;;;;;;6277341;22;20028;-71
2022/06/22 05:58:24;;;;;;;3.10;1.60;;;;;;;;;;6276841;22;20371;-72
2022/06/22 06:00:51;;;;;;;3.65;1.60;;;;;;;;;;6277139;22;20018;-72
2022/06/22 06:03:16;;;;;;;4.75;1.55;;;;;;;;;;6277512;22;20045;-70
2022/06/22 06:05:45;;;;;;;3.03;1.55;;;;;;;;;;6277187;22;20419;-69
2022/06/22 06:08:23;;;;;;;6.00;1.90;;;;;;;;;;6277429;22;20003;-70
2022/06/22 06:10:48;;;;;;;4.18;1.50;;;;;;;;;;6276636;22;20008;-72
2022/06/22 06:13:19;;;;;;;3.30;1.58;;;;;;;;;;6277382;22;20011;-72
2022/06/22 06:15:46;;;;;;;2.72;1.30;;;;;;;;;;6276836;22;19995;-73
2022/06/22 06:18:19;;;;;;;4.03;1.52;;;;;;;;;;6277498;22;20004;-72
2022/06/22 06:20:47;;;;;;;3.90;1.70;;;;;;;;;;6276816;22;20004;-72
2022/06/22 06:23:16;;;;;;;3.33;1.70;;;;;;;;;;6277269;22;20003;-72
2022/06/22 06:28:36;;;;;;;4.53;1.63;;;;;;;;;;6276649;22;20315;-70
2022/06/22 06:31:05;;;;;;;5.00;1.70;;;;;;;;;;6276724;22;20009;-70
2022/06/22 06:33:35;;;;;;;3.70;1.88;;;;;;;;;;6277335;22;19999;-70
2022/06/22 06:36:16;;;;;;;7.00;1.85;;;;;;;;;;6276687;22;20379;-70
2022/06/22 06:38:42;;;;;;;3.55;1.70;;;;;;;;;;6276854;22;20008;-70
2022/06/22 06:41:34;;;;;;;7.32;1.88;;;;;;;;;;6277084;22;20011;-70
2022/06/22 06:43:59;;;;;;;4.57;1.80;;;;;;;;;;6229644;22;20007;-70
2022/06/22 06:46:27;;;;;;;3.83;1.60;;;;;;;;;;6277152;22;20055;-70
2022/06/22 06:48:58;;;;;;;4.90;1.80;;;;;;;;;;6249441;22;20279;-70
2022/06/22 06:51:25;;;;;;;4.43;1.77;;;;;;;;;;6276748;22;20039;-70
2022/06/22 06:53:57;;;;;;;4.60;1.70;;;;;;;;;;6276428;22;20014;-70
2022/06/22 06:56:36;;;;;;;4.20;1.80;;;;;;;;;;6276641;22;19992;-70
2022/06/22 06:59:04;;;;;;;8.40;2.20;;;;;;;;;;6276634;22;19996;-70
2022/06/22 07:01:30;;;;;;;8.00;2.22;;;;;;;;;;6276496;22;20032;-70
2022/06/22 07:04:07;;;;;;;4.93;1.92;;;;;;;;;;6276808;22;19995;-70
2022/06/22 07:06:33;;;;;;;6.32;1.90;;;;;;;;;;6276498;22;20460;-70
2022/06/22 07:09:08;;;;;;;4.93;1.98;;;;;;;;;;6276652;22;20030;-70
2022/06/22 07:11:53;;;;;;;4.75;1.90;;;;;;;;;;6276639;22;20122;-70
2022/06/22 07:14:27;;;;;;;5.20;1.90;;;;;;;;;;6248316;22;20344;-70
2022/06/22 07:16:54;;;;;;;5.00;1.70;;;;;;;;;;6276333;22;20050;-70
2022/06/22 07:19:22;;;;;;;3.90;2.15;;;;;;;;;;6276577;22;20050;-70
2022/06/22 07:21:47;;;;;;;5.70;2.00;;;;;;;;;;6276395;22;20010;-70
2022/06/22 07:24:13;;;;;;;4.13;1.87;;;;;;;;;;6276653;22;20011;-70
2022/06/22 07:27:01;;;;;;;4.72;1.98;;;;;;;;;;6276390;22;20035;-70
2022/06/22 07:29:26;;;;;;;5.70;2.38;;;;;;;;;;6276642;22;20013;-70
2022/06/22 07:31:54;;;;;;;6.85;2.17;;;;;;;;;;6275986;22;20019;-70
2022/06/22 07:34:23;;;;;;;4.15;1.92;;;;;;;;;;6276636;22;20000;-70
2022/06/22 07:36:50;;;;;;;5.93;2.25;;;;;;;;;;6276249;22;19988;-70
2022/06/22 07:39:27;;;;;;;7.43;2.42;;;;;;;;;;6276471;22;20031;-70
2022/06/22 07:41:52;;;;;;;6.10;2.28;;;;;;;;;;6276630;22;20002;-70
2022/06/22 07:44:21;;;;;;;4.13;1.98;;;;;;;;;;6276633;22;20035;-71
2022/06/22 07:46:49;;;;;;;4.95;2.17;;;;;;;;;;6277020;22;19992;-72
2022/06/22 07:49:40;;;;;;;4.53;2.08;;;;;;;;;;6276516;22;19996;-72
2022/06/22 07:52:10;;;;;;;3.53;2.00;;;;;;;;;;6270359;22;20019;-72
2022/06/22 07:54:41;;;;;;;4.45;2.13;;;;;;;;;;6276282;22;19999;-73
2022/06/22 07:57:26;;;;;;;11.13;2.47;;;;;;;;;;6262044;22;20015;-73
2022/06/22 07:59:54;;;;;;;8.88;2.80;;;;;;;;;;6272724;22;20349;-73
2022/06/22 08:02:21;;;;;;;8.45;2.55;;;;;;;;;;6272882;22;20003;-73
2022/06/22 08:05:08;;;;;;;6.95;2.42;;;;;;;;;;6272929;22;20063;-72
2022/06/22 08:07:39;;;;;;;5.00;2.10;;;;;;;;;;6272860;22;20071;-73
2022/06/22 08:10:08;;;;;;;4.43;2.42;;;;;;;;;;6272666;22;20006;-73
2022/06/22 08:12:53;;;;;;;4.45;2.40;;;;;;;;;;6272968;22;20018;-72
2022/06/22 08:15:20;;;;;;;6.78;2.22;;;;;;;;;;6272929;22;20031;-72
2022/06/22 08:17:50;;;;;;;4.15;2.28;;;;;;;;;;6272514;22;20023;-73
2022/06/22 08:20:25;;;;;;;6.55;2.50;;;;;;;;;;6272796;22;20007;-72
2022/06/22 08:22:51;;;;;;;5.20;2.30;;;;;;;;;;6272725;22;20030;-73
2022/06/22 08:25:18;;;;;;;6.43;2.20;;;;;;;;;;6274586;22;20083;-72
2022/06/22 08:27:44;;;;;;;6.40;2.58;;;;;;;;;;6275558;22;20365;-73
2022/06/22 08:30:10;;;;;;;5.75;2.17;;;;;;;;;;6275540;22;20022;-72
2022/06/22 08:32:42;;;;;;;4.07;2.13;;;;;;;;;;6276455;22;20008;-73
2022/06/22 08:35:08;;;;;;;6.03;2.28;;;;;;;;;;6278043;22;20003;-72
2022/06/22 08:37:35;;;;;;;6.83;2.80;;;;;;;;;;6278261;22;20477;-73
2022/06/22 08:40:36;;;;;;;4.55;2.13;;;;;;;;;;6278340;22;20244;-72
2022/06/22 08:43:07;;;;;;;6.55;2.35;;;;;;;;;;6154403;23;20394;-72
2022/06/22 08:45:46;;;;;;;3.53;2.28;;;;;;;;;;6256236;22;20011;-72
2022/06/22 08:48:11;;;;;;;9.63;2.33;;;;;;;;;;6278080;22;20062;-74
2022/06/22 08:50:39;;;;;;;4.43;2.40;;;;;;;;;;6278100;22;20008;-73
2022/06/22 08:53:16;;;;;;;6.18;2.45;;;;;;;;;;6278142;22;20049;-73
2022/06/22 08:55:47;;;;;;;4.55;2.45;;;;;;;;;;6278002;22;20018;-72
2022/06/22 08:58:25;;;;;;;5.22;2.10;;;;;;;;;;6278042;22;20008;-73
2022/06/22 09:00:50;;;;;;;5.22;2.20;;;;;;;;;;6277935;22;20000;-73
2022/06/22 09:03:16;;;;;;;4.45;2.30;;;;;;;;;;6278001;22;20089;-73
2022/06/22 09:05:44;;;;;;;6.87;2.43;;;;;;;;;;6277875;22;19992;-73
2022/06/22 09:08:24;;;;;;;6.82;2.60;;;;;;;;;;6278196;22;20332;-72
2022/06/22 09:10:58;;;;;;;7.68;2.92;;;;;;;;;;6277804;22;20086;-73
2022/06/22 09:13:42;;;;;;;6.57;2.50;;;;;;;;;;6277819;22;20014;-73
2022/06/22 09:16:07;;;;;;;6.75;3.03;;;;;;;;;;6276566;22;20000;-73
2022/06/22 09:18:32;;;;;;;5.13;2.70;;;;;;;;;;6277739;22;20315;-73
2022/06/22 09:21:03;;;;;;;6.50;2.83;;;;;;;;;;6277188;22;20363;-73
2022/06/22 09:23:46;;;;;;;8.43;2.92;;;;;;;;;;6277801;22;19995;-73
2022/06/22 09:26:20;;;;;;;6.85;2.78;;;;;;;;;;6267768;22;20031;-73
2022/06/22 09:28:52;;;;;;;6.53;3.00;;;;;;;;;;6269291;22;20034;-73
2022/06/22 09:31:18;;;;;;;;;;;;;;;;;;6272294;22;20090;-73
2022/06/22 09:33:59;;;;;;;6.97;2.70;;;;;;;;;;6273242;22;20304;-73
2022/06/22 09:36:30;;;;;;;6.88;3.15;;;;;;;;;;6273689;22;20057;-74
2022/06/22 09:39:14;;;;;;;10.73;2.85;;;;;;;;;;6272621;22;20481;-74
2022/06/22 09:41:45;;;;;;;7.15;3.47;;;;;;;;;;6273810;22;20008;-74
2022/06/22 09:44:27;;;;;;;10.15;3.70;;;;;;;;;;6274443;22;19991;-74
2022/06/22 09:47:10;;;;;;;10.07;3.70;;;;;;;;;;6273284;22;20007;-73
2022/06/22 09:49:54;;;;;;;6.40;3.55;;;;;;;;;;6273306;22;19996;-73
2022/06/22 09:52:38;;;;;;;6.28;3.20;;;;;;;;;;6273581;22;20553;-73
2022/06/22 09:58:05;;;;;;;8.18;3.83;;;;;;;;;;6273241;22;20023;-73
2022/06/22 10:00:40;;;;;;;6.28;3.80;;;;;;;;;;6272485;22;20019;-73
2022/06/22 10:03:24;;;;;;;5.60;3.40;;;;;;;;;;6272407;22;20305;-73
2022/06/22 10:05:52;;;;;;;8.02;4.05;;;;;;;;;;6273242;22;20015;-72
2022/06/22 10:08:40;;;;;;;10.10;3.60;;;;;;;;;;6273004;22;20139;-72
2022/06/22 10:11:11;;;;;;;11.65;3.60;;;;;;;;;;6273062;22;20003;-74
2022/06/22 10:13:49;;;;;;;10.87;4.40;;;;;;;;;;6272718;22;20324;-73
2022/06/22 10:16:24;;;;;;;6.20;3.60;;;;;;;;;;6273483;22;20212;-73
2022/06/22 10:18:52;;;;;;;8.98;3.22;;;;;;;;;;6264611;22;20037;-72
2022/06/22 10:21:17;;;;;;;7.60;3.75;;;;;;;;;;6268113;22;19996;-72
2022/06/22 10:23:51;;;;;;;8.95;4.03;;;;;;;;;;6271932;22;20017;-72
2022/06/22 10:26:23;;;;;;;7.22;3.05;;;;;;;;;;6272038;22;20004;-73
2022/06/22 10:28:48;;;;;;;8.45;4.00;;;;;;;;;;6272086;22;20015;-73
2022/06/22 10:31:14;;;;;;;6.55;4.22;;;;;;;;;;6271508;22;20049;-73
2022/06/22 10:33:58;;;;;;;8.25;2.90;;;;;;;;;;6272722;22;19996;-73
2022/06/22 10:36:26;;;;;;;8.48;3.20;;;;;;;;;;6272688;22;20003;-72
2022/06/22 10:38:51;;;;;;;8.50;3.05;;;;;;;;;;6271677;22;20069;-72
2022/06/22 10:47:18;;;;;;;5.13;3.10;;;;;;;;;;6271590;22;20014;-71
2022/06/22 10:49:59;;;;;;;6.07;3.27;;;;;;;;;;6270174;22;20007;-71
2022/06/22 10:52:35;;;;;;;10.07;2.92;;;;;;;;;;6271510;22;20424;-71
2022/06/22 10:55:00;;;;;;;4.63;2.50;;;;;;;;;;6271912;22;20007;-73
2022/06/22 10:57:46;;;;;;;4.33;2.23;;;;;;;;;;6271588;22;20432;-73
2022/06/22 11:00:11;;;;;;;5.53;2.20;;;;;;;;;;6271353;22;20363;-73
2022/06/22 11:02:43;;;;;;;5.18;2.70;;;;;;;;;;6270402;22;20059;-73
2022/06/22 11:05:20;;;;;;;5.63;2.58;;;;;;;;;;6271936;22;19996;-73
2022/06/22 11:07:45;;;;;;;5.80;2.50;;;;;;;;;;6271246;22;19999;-73
2022/06/22 11:10:26;;;;;;;5.47;2.65;;;;;;;;;;6271140;22;20331;-73
2022/06/22 11:12:54;;;;;;;6.60;2.40;;;;;;;;;;6270097;22;20000;-73
2022/06/22 11:15:38;;;;;;;7.13;2.85;;;;;;;;;;6272023;22;20004;-73
2022/06/22 11:18:06;;;;;;;5.57;2.65;;;;;;;;;;6272097;22;20375;-73
2022/06/22 11:20:40;;;;;;;8.35;2.60;;;;;;;;;;6271438;22;20003;-73
2022/06/22 11:23:12;;;;;;;5.13;2.15;;;;;;;;;;6271147;22;20085;-73
2022/06/22 11:31:21;;;;;;;5.47;2.45;;;;;;;;;;6271510;22;19963;-73
2022/06/22 11:34:02;;;;;;;7.70;2.70;;;;;;;;;;6272346;22;20010;-73
2022/06/22 11:36:28;;;;;;;6.03;2.40;;;;;;;;;;6271917;22;20103;-73
2022/06/22 11:38:56;;;;;;;9.02;2.50;;;;;;;;;;6272093;22;20424;-73
2022/06/22 11:41:21;;;;;;;5.95;2.53;;;;;;;;;;6257649;22;20102;-73
2022/06/22 11:43:46;;;;;;;7.85;2.50;;;;;;;;;;6270275;22;20532;-73
2022/06/22 11:46:26;;;;;;;7.18;2.22;;;;;;;;;;6272117;22;20067;-73
2022/06/22 11:48:56;;;;;;;7.68;2.05;;;;;;;;;;6271019;22;19992;-73
2022/06/22 11:51:40;;;;;;;6.40;2.15;;;;;;;;;;6270207;22;20007;-73
2022/06/22 11:54:20;;;;;;;4.57;1.75;;;;;;;;;;6266924;22;20034;-73
2022/06/22 11:56:53;;;;;;;6.55;2.20;;;;;;;;;;6271309;22;20003;-73
2022/06/22 11:59:24;;;;;;;4.35;2.10;;;;;;;;;;6268143;22;20059;-73
2022/06/22 12:01:49;;;;;;;11.52;2.17;;;;;;;;;;6267013;22;20008;-73
2022/06/22 12:04:14;;;;;;;6.20;2.03;;;;;;;;;;6270402;22;20003;-73
2022/06/22 12:06:49;;;;;;;4.80;1.60;;;;;;;;;;6271049;22;20416;-73
2022/06/22 12:09:31;;;;;;;5.95;2.30;;;;;;;;;;6272794;22;20004;-73
2022/06/22 12:12:15;;;;;;;5.88;2.13;;;;;;;;;;6274105;22;20099;-73
2022/06/22 12:15:10;;;;;;;6.18;1.95;;;;;;;;;;6271807;22;20089;-73
2022/06/22 12:17:54;;;;;;;4.32;2.05;;;;;;;;;;6272681;22;19999;-72
2022/06/22 12:20:19;;;;;;;6.32;1.70;;;;;;;;;;6273458;22;20011;-73
2022/06/22 12:22:51;;;;;;;6.25;2.20;;;;;;;;;;6268044;22;20047;-73
2022/06/22 12:25:22;;;;;;;9.70;2.50;;;;;;;;;;6272932;22;20007;-72
2022/06/22 12:27:54;;;;;;;9.25;2.00;;;;;;;;;;6272856;22;20045;-72
2022/06/22 12:30:26;;;;;;;8.57;2.40;;;;;;;;;;6273633;22;20395;-73
2022/06/22 12:32:54;;;;;;;5.72;2.03;;;;;;;;;;6272026;22;20103;-72
2022/06/22 12:35:42;;;;;;;7.47;2.45;;;;;;;;;;6269639;22;20078;-73
2022/06/22 12:38:17;;;;;;;4.43;2.10;;;;;;;;;;6273337;22;20004;-72
2022/06/22 12:40:49;;;;;;;7.78;2.17;;;;;;;;;;6246615;22;20047;-72
2022/06/22 12:43:29;;;;;;;5.73;2.13;;;;;;;;;;6271677;22;20083;-73
2022/06/22 12:45:56;;;;;;;6.25;2.35;;;;;;;;;;6273096;22;20235;-73
2022/06/22 12:48:34;;;;;;;5.75;2.58;;;;;;;;;;6273481;22;20450;-72
2022/06/22 12:51:08;;;;;;;6.00;2.80;;;;;;;;;;6273074;22;20090;-73
2022/06/22 12:53:47;;;;;;;6.20;2.50;;;;;;;;;;6273604;22;20012;-72
2022/06/22 12:56:35;;;;;;;8.32;2.20;;;;;;;;;;6273306;22;20004;-72
2022/06/22 12:59:13;;;;;;;3.53;1.73;;;;;;;;;;6215737;22;20012;-72
2022/06/22 13:01:38;;;;;;;7.03;1.92;;;;;;;;;;6273290;22;20132;-72
2022/06/22 13:04:06;;;;;;;5.85;1.90;;;;;;;;;;6273071;22;20003;-72
2022/06/22 13:06:33;;;;;;;9.05;2.28;;;;;;;;;;6273438;22;20094;-73
2022/06/22 13:08:58;;;;;;;2.75;1.60;;;;;;;;;;6272750;22;19996;-72
2022/06/22 13:11:25;;;;;;;5.55;2.22;;;;;;;;;;6273890;22;20022;-73
2022/06/22 13:13:55;;;;;;;5.47;2.13;;;;;;;;;;6261965;22;20335;-73
2022/06/22 13:16:27;;;;;;;6.35;1.75;;;;;;;;;;6265933;22;20022;-73
2022/06/22 13:19:15;;;;;;;4.50;1.58;;;;;;;;;;6272103;22;20010;-73
2022/06/22 13:21:54;;;;;;;4.90;2.03;;;;;;;;;;6271584;22;20046;-73
2022/06/22 13:24:22;;;;;;;8.15;2.10;;;;;;;;;;6243538;22;20012;-72
2022/06/22 13:26:47;;;;;;;4.20;1.88;;;;;;;;;;6272052;22;20003;-73
2022/06/22 13:29:16;;;;;;;4.93;1.88;;;;;;;;;;6272557;22;20022;-73
2022/06/22 13:31:43;;;;;;;7.60;1.92;;;;;;;;;;6271638;22;20008;-73
2022/06/22 13:34:11;;;;;;;5.10;2.05;;;;;;;;;;6272182;22;20085;-73
2022/06/22 13:36:42;;;;;;;7.68;2.40;;;;;;;;;;6272151;22;20000;-73
2022/06/22 13:39:19;;;;;;;4.88;1.98;;;;;;;;;;6271684;22;20018;-73
2022/06/22 13:42:17;;;;;;;4.97;2.38;;;;;;;;;;6272064;22;20000;-73
2022/06/22 13:44:51;;;;;;;4.95;2.10;;;;;;;;;;6204405;22;20030;-73
2022/06/22 13:47:35;;;;;;;10.32;2.30;;;;;;;;;;6271740;22;20454;-73
2022/06/22 13:50:18;;;;;;;8.48;2.20;;;;;;;;;;6271851;22;20015;-73
2022/06/22 13:52:47;;;;;;;5.20;2.10;;;;;;;;;;6271460;22;20018;-72
2022/06/22 13:55:19;;;;;;;9.23;2.78;;;;;;;;;;6271555;22;20305;-73
2022/06/22 13:57:51;;;;;;;6.03;2.33;;;;;;;;;;6272762;22;20015;-72
2022/06/22 14:00:18;;;;;;;5.82;2.60;;;;;;;;;;6272178;22;20007;-73
2022/06/22 14:02:43;;;;;;;5.05;2.35;;;;;;;;;;6271320;22;20008;-73
2022/06/22 14:05:15;;;;;;;5.88;2.50;;;;;;;;;;6270359;22;19999;-72
2022/06/22 14:07:59;;;;;;;5.35;2.38;;;;;;;;;;6269612;22;20053;-73
2022/06/22 14:10:32;;;;;;;5.57;2.38;;;;;;;;;;6272102;22;20003;-73
2022/06/22 14:13:18;;;;;;;5.50;2.40;;;;;;;;;;6271252;22;20016;-73
2022/06/22 14:15:46;;;;;;;4.40;2.38;;;;;;;;;;6271854;22;20447;-72
2022/06/22 14:18:26;;;;;;;5.07;2.10;;;;;;;;;;6272885;22;20004;-73
2022/06/22 14:21:00;;;;;;;6.57;3.15;;;;;;;;;;6271302;22;20015;-73
2022/06/22 14:23:26;;;;;;;8.70;2.30;;;;;;;;;;6271369;22;20004;-73
2022/06/22 14:26:03;;;;;;;5.50;2.70;;;;;;;;;;6269256;22;20011;-73
2022/06/22 14:28:47;;;;;;;8.18;3.15;;;;;;;;;;6271586;22;20362;-73
2022/06/22 14:31:12;;;;;;;5.25;2.08;;;;;;;;;;6271426;22;20003;-72
2022/06/22 14:33:43;;;;;;;6.30;2.20;;;;;;;;;;6268393;22;20389;-73
2022/06/22 14:36:09;;;;;;;9.73;2.75;;;;;;;;;;6271526;22;20232;-72
2022/06/22 14:38:34;;;;;;;7.22;2.45;;;;;;;;;;6271179;22;20007;-73
2022/06/22 14:41:18;;;;;;;7.15;2.75;;;;;;;;;;6271745;22;20477;-73
2022/06/22 14:43:50;;;;;;;6.55;2.53;;;;;;;;;;6271141;22;20000;-73
2022/06/22 14:46:34;;;;;;;5.25;2.25;;;;;;;;;;6269635;22;20003;-72
2022/06/22 14:49:12;;;;;;;6.45;2.40;;;;;;;;;;6272898;22;20035;-73
2022/06/22 14:52:04;;;;;;;10.10;2.30;;;;;;;;;;6270958;22;20066;-73
2022/06/22 14:54:35;;;;;;;7.93;3.20;;;;;;;;;;6267165;22;20015;-72
2022/06/22 14:57:14;;;;;;;8.80;2.85;;;;;;;;;;6272722;22;20011;-73
2022/06/22 14:59:50;;;;;;;6.30;2.42;;;;;;;;;;6272023;22;20431;-73
2022/06/22 15:02:24;;;;;;;7.30;2.10;;;;;;;;;;6272341;22;19999;-73
2022/06/22 15:05:02;;;;;;;8.35;2.72;;;;;;;;;;6270963;22;20011;-72
2022/06/22 15:07:34;;;;;;;6.68;2.28;;;;;;;;;;6271798;22;20374;-73
2022/06/22 15:10:15;;;;;;;5.27;2.50;;;;;;;;;;6271054;22;20078;-73
2022/06/22 15:12:59;;;;;;;7.95;2.30;;;;;;;;;;6272446;22;20459;-72
2022/06/22 15:15:51;;;;;;;4.43;2.10;;;;;;;;;;6272011;22;20014;-73
2022/06/22 15:18:16;;;;;;;8.82;2.53;;;;;;;;;;6265631;22;20004;-73
2022/06/22 15:20:49;;;;;;;5.07;2.42;;;;;;;;;;6260512;22;20316;-72
2022/06/22 15:23:27;;;;;;;4.20;2.00;;;;;;;;;;6270413;22;19999;-73
2022/06/22 15:26:11;;;;;;;4.82;2.15;;;;;;;;;;6268983;22;20000;-73
2022/06/22 15:28:46;;;;;;;6.32;2.50;;;;;;;;;;6271010;22;20035;-73
2022/06/22 15:31:14;;;;;;;4.65;2.25;;;;;;;;;;6270769;22;20012;-72